sensor_id;sensor_type;location;lat;lon;timestamp;P1;durP1;ratioP1;P2;durP2;ratioP2
61407;SDS011;47274;43.054;25.146;2023-04-25T00:01:20;16.70;;;8.80;;
61407;SDS011;47274;43.054;25.146;2023-04-25T00:03:47;16.88;;;8.20;;
61407;SDS011;47274;43.054;25.146;2023-04-25T00:06:13;15.43;;;7.60;;
61407;SDS011;47274;43.054;25.146;2023-04-25T00:08:43;17.23;;;9.07;;
61407;SDS011;47274;43.054;25.146;2023-04-25T00:11:09;14.57;;;7.80;;
61407;SDS011;47274;43.054;25.146;2023-04-25T00:13:35;14.80;;;7.82;;
61407;SDS011;47274;43.054;25.146;2023-04-25T00:16:01;16.00;;;7.95;;
61407;SDS011;47274;43.054;25.146;2023-04-25T00:18:27;15.93;;;7.97;;
61407;SDS011;47274;43.054;25.146;2023-04-25T00:20:57;15.70;;;7.50;;
61407;SDS011;47274;43.054;25.146;2023-04-25T00:23:23;14.95;;;8.05;;
61407;SDS011;47274;43.054;25.146;2023-04-25T00:25:49;15.55;;;7.78;;
61407;SDS011;47274;43.054;25.146;2023-04-25T00:28:16;15.68;;;7.63;;
61407;SDS011;47274;43.054;25.146;2023-04-25T00:30:45;17.90;;;8.40;;
61407;SDS011;47274;43.054;25.146;2023-04-25T00:33:10;16.65;;;7.82;;
61407;SDS011;47274;43.054;25.146;2023-04-25T00:35:36;11.85;;;6.80;;
61407;SDS011;47274;43.054;25.146;2023-04-25T00:38:07;14.07;;;6.95;;
61407;SDS011;47274;43.054;25.146;2023-04-25T00:40:40;13.85;;;7.30;;
61407;SDS011;47274;43.054;25.146;2023-04-25T00:43:08;14.75;;;7.80;;
61407;SDS011;47274;43.054;25.146;2023-04-25T00:45:37;14.70;;;7.45;;
61407;SDS011;47274;43.054;25.146;2023-04-25T00:48:04;14.75;;;8.07;;
61407;SDS011;47274;43.054;25.146;2023-04-25T00:50:32;13.70;;;7.30;;
61407;SDS011;47274;43.054;25.146;2023-04-25T00:53:05;14.88;;;7.82;;
61407;SDS011;47274;43.054;25.146;2023-04-25T00:55:34;18.77;;;9.65;;
61407;SDS011;47274;43.054;25.146;2023-04-25T00:58:01;15.23;;;8.23;;
61407;SDS011;47274;43.054;25.146;2023-04-25T01:00:33;14.77;;;7.70;;
61407;SDS011;47274;43.054;25.146;2023-04-25T01:02:59;17.83;;;9.30;;
61407;SDS011;47274;43.054;25.146;2023-04-25T01:05:26;18.30;;;9.63;;
61407;SDS011;47274;43.054;25.146;2023-04-25T01:07:52;36.50;;;11.15;;
61407;SDS011;47274;43.054;25.146;2023-04-25T01:10:24;58.80;;;13.35;;
61407;SDS011;47274;43.054;25.146;2023-04-25T01:12:50;19.33;;;10.10;;
61407;SDS011;47274;43.054;25.146;2023-04-25T01:15:16;17.08;;;9.48;;
61407;SDS011;47274;43.054;25.146;2023-04-25T01:17:42;17.55;;;9.20;;
61407;SDS011;47274;43.054;25.146;2023-04-25T01:20:09;17.92;;;9.05;;
61407;SDS011;47274;43.054;25.146;2023-04-25T01:22:37;15.30;;;8.10;;
61407;SDS011;47274;43.054;25.146;2023-04-25T01:25:03;15.32;;;7.93;;
61407;SDS011;47274;43.054;25.146;2023-04-25T01:27:32;15.35;;;8.05;;
61407;SDS011;47274;43.054;25.146;2023-04-25T01:29:58;14.15;;;7.68;;
61407;SDS011;47274;43.054;25.146;2023-04-25T01:32:25;16.50;;;8.20;;
61407;SDS011;47274;43.054;25.146;2023-04-25T01:34:54;15.95;;;8.63;;
61407;SDS011;47274;43.054;25.146;2023-04-25T01:37:19;14.55;;;7.65;;
61407;SDS011;47274;43.054;25.146;2023-04-25T01:39:46;16.08;;;8.50;;
61407;SDS011;47274;43.054;25.146;2023-04-25T01:42:12;18.63;;;9.50;;
61407;SDS011;47274;43.054;25.146;2023-04-25T01:44:38;17.33;;;9.15;;
61407;SDS011;47274;43.054;25.146;2023-04-25T01:47:04;15.82;;;8.07;;
61407;SDS011;47274;43.054;25.146;2023-04-25T01:49:30;17.02;;;8.23;;
61407;SDS011;47274;43.054;25.146;2023-04-25T01:51:57;15.60;;;8.05;;
61407;SDS011;47274;43.054;25.146;2023-04-25T01:54:25;14.82;;;7.68;;
61407;SDS011;47274;43.054;25.146;2023-04-25T01:56:51;16.25;;;8.70;;
61407;SDS011;47274;43.054;25.146;2023-04-25T01:59:18;17.48;;;8.63;;
61407;SDS011;47274;43.054;25.146;2023-04-25T02:02:07;15.98;;;8.45;;
61407;SDS011;47274;43.054;25.146;2023-04-25T02:04:34;17.55;;;9.48;;
61407;SDS011;47274;43.054;25.146;2023-04-25T02:07:01;18.23;;;9.45;;
61407;SDS011;47274;43.054;25.146;2023-04-25T02:09:46;19.13;;;10.20;;
61407;SDS011;47274;43.054;25.146;2023-04-25T02:12:12;19.73;;;10.15;;
61407;SDS011;47274;43.054;25.146;2023-04-25T02:15:00;18.83;;;9.68;;
61407;SDS011;47274;43.054;25.146;2023-04-25T02:17:36;18.38;;;9.73;;
61407;SDS011;47274;43.054;25.146;2023-04-25T02:20:05;18.20;;;9.27;;
61407;SDS011;47274;43.054;25.146;2023-04-25T02:22:32;18.15;;;8.85;;
61407;SDS011;47274;43.054;25.146;2023-04-25T02:25:02;18.52;;;10.40;;
61407;SDS011;47274;43.054;25.146;2023-04-25T02:27:30;19.70;;;10.65;;
61407;SDS011;47274;43.054;25.146;2023-04-25T02:29:56;20.67;;;11.23;;
61407;SDS011;47274;43.054;25.146;2023-04-25T02:32:22;21.75;;;12.18;;
61407;SDS011;47274;43.054;25.146;2023-04-25T02:34:50;22.63;;;12.50;;
61407;SDS011;47274;43.054;25.146;2023-04-25T02:37:16;22.33;;;13.25;;
61407;SDS011;47274;43.054;25.146;2023-04-25T02:39:53;43.92;;;14.50;;
61407;SDS011;47274;43.054;25.146;2023-04-25T02:42:19;23.15;;;13.98;;
61407;SDS011;47274;43.054;25.146;2023-04-25T02:44:44;23.40;;;13.40;;
61407;SDS011;47274;43.054;25.146;2023-04-25T02:47:13;22.23;;;13.50;;
61407;SDS011;47274;43.054;25.146;2023-04-25T02:49:39;23.63;;;14.68;;
61407;SDS011;47274;43.054;25.146;2023-04-25T02:52:05;22.95;;;13.40;;
61407;SDS011;47274;43.054;25.146;2023-04-25T02:54:31;23.42;;;13.20;;
61407;SDS011;47274;43.054;25.146;2023-04-25T02:56:58;22.80;;;12.90;;
61407;SDS011;47274;43.054;25.146;2023-04-25T02:59:30;19.80;;;10.82;;
61407;SDS011;47274;43.054;25.146;2023-04-25T03:01:55;20.23;;;10.30;;
61407;SDS011;47274;43.054;25.146;2023-04-25T03:04:22;20.13;;;10.48;;
61407;SDS011;47274;43.054;25.146;2023-04-25T03:06:51;19.92;;;9.52;;
61407;SDS011;47274;43.054;25.146;2023-04-25T03:09:19;17.70;;;9.65;;
61407;SDS011;47274;43.054;25.146;2023-04-25T03:11:49;18.10;;;8.88;;
61407;SDS011;47274;43.054;25.146;2023-04-25T03:14:15;17.35;;;9.20;;
61407;SDS011;47274;43.054;25.146;2023-04-25T03:16:41;17.10;;;8.60;;
61407;SDS011;47274;43.054;25.146;2023-04-25T03:19:06;16.45;;;8.52;;
61407;SDS011;47274;43.054;25.146;2023-04-25T03:21:36;15.20;;;7.47;;
61407;SDS011;47274;43.054;25.146;2023-04-25T03:24:03;15.55;;;8.32;;
61407;SDS011;47274;43.054;25.146;2023-04-25T03:26:30;15.75;;;7.57;;
61407;SDS011;47274;43.054;25.146;2023-04-25T03:28:56;14.13;;;6.45;;
61407;SDS011;47274;43.054;25.146;2023-04-25T03:31:22;9.98;;;5.72;;
61407;SDS011;47274;43.054;25.146;2023-04-25T03:33:48;10.43;;;5.72;;
61407;SDS011;47274;43.054;25.146;2023-04-25T03:36:19;16.27;;;6.93;;
61407;SDS011;47274;43.054;25.146;2023-04-25T03:38:48;11.70;;;6.53;;
61407;SDS011;47274;43.054;25.146;2023-04-25T03:41:15;9.98;;;5.28;;
61407;SDS011;47274;43.054;25.146;2023-04-25T03:43:48;8.60;;;4.80;;
61407;SDS011;47274;43.054;25.146;2023-04-25T03:46:18;10.77;;;5.35;;
61407;SDS011;47274;43.054;25.146;2023-04-25T03:48:50;10.25;;;5.40;;
61407;SDS011;47274;43.054;25.146;2023-04-25T03:51:26;10.50;;;5.50;;
61407;SDS011;47274;43.054;25.146;2023-04-25T03:54:01;10.15;;;5.18;;
61407;SDS011;47274;43.054;25.146;2023-04-25T03:56:33;10.02;;;5.18;;
61407;SDS011;47274;43.054;25.146;2023-04-25T03:59:06;9.57;;;4.90;;
61407;SDS011;47274;43.054;25.146;2023-04-25T04:01:38;10.98;;;5.22;;
61407;SDS011;47274;43.054;25.146;2023-04-25T04:04:04;8.30;;;4.88;;
61407;SDS011;47274;43.054;25.146;2023-04-25T04:06:33;8.23;;;4.93;;
61407;SDS011;47274;43.054;25.146;2023-04-25T04:09:09;6.65;;;4.32;;
61407;SDS011;47274;43.054;25.146;2023-04-25T04:11:38;6.40;;;4.32;;
61407;SDS011;47274;43.054;25.146;2023-04-25T04:14:05;6.97;;;4.35;;
61407;SDS011;47274;43.054;25.146;2023-04-25T04:16:45;7.65;;;4.28;;
61407;SDS011;47274;43.054;25.146;2023-04-25T04:19:17;5.18;;;3.50;;
61407;SDS011;47274;43.054;25.146;2023-04-25T04:21:54;5.00;;;3.28;;
61407;SDS011;47274;43.054;25.146;2023-04-25T04:24:23;4.13;;;3.15;;
61407;SDS011;47274;43.054;25.146;2023-04-25T04:26:57;7.85;;;3.38;;
61407;SDS011;47274;43.054;25.146;2023-04-25T04:29:46;10.45;;;3.67;;
61407;SDS011;47274;43.054;25.146;2023-04-25T04:32:22;5.00;;;3.35;;
61407;SDS011;47274;43.054;25.146;2023-04-25T04:34:49;5.22;;;3.70;;
61407;SDS011;47274;43.054;25.146;2023-04-25T04:37:17;7.65;;;3.90;;
61407;SDS011;47274;43.054;25.146;2023-04-25T04:39:43;7.85;;;4.35;;
61407;SDS011;47274;43.054;25.146;2023-04-25T04:42:23;7.25;;;4.53;;
61407;SDS011;47274;43.054;25.146;2023-04-25T04:45:12;6.47;;;3.70;;
61407;SDS011;47274;43.054;25.146;2023-04-25T04:48:00;6.25;;;3.22;;
61407;SDS011;47274;43.054;25.146;2023-04-25T04:50:46;6.47;;;3.50;;
61407;SDS011;47274;43.054;25.146;2023-04-25T04:53:37;5.35;;;3.33;;
61407;SDS011;47274;43.054;25.146;2023-04-25T04:56:26;6.60;;;3.00;;
61407;SDS011;47274;43.054;25.146;2023-04-25T04:59:04;4.38;;;3.17;;
61407;SDS011;47274;43.054;25.146;2023-04-25T05:01:53;4.30;;;2.90;;
61407;SDS011;47274;43.054;25.146;2023-04-25T05:04:55;5.35;;;3.03;;
61407;SDS011;47274;43.054;25.146;2023-04-25T05:07:57;3.63;;;3.10;;
61407;SDS011;47274;43.054;25.146;2023-04-25T05:11:04;5.22;;;2.80;;
61407;SDS011;47274;43.054;25.146;2023-04-25T05:13:46;5.03;;;2.80;;
61407;SDS011;47274;43.054;25.146;2023-04-25T05:16:30;5.53;;;2.70;;
61407;SDS011;47274;43.054;25.146;2023-04-25T05:19:16;5.47;;;2.97;;
61407;SDS011;47274;43.054;25.146;2023-04-25T05:22:02;6.10;;;3.00;;
61407;SDS011;47274;43.054;25.146;2023-04-25T05:24:57;4.97;;;3.30;;
61407;SDS011;47274;43.054;25.146;2023-04-25T05:27:40;5.38;;;3.15;;
61407;SDS011;47274;43.054;25.146;2023-04-25T05:30:24;3.55;;;3.03;;
61407;SDS011;47274;43.054;25.146;2023-04-25T05:33:10;5.32;;;3.30;;
61407;SDS011;47274;43.054;25.146;2023-04-25T05:35:38;6.65;;;3.75;;
61407;SDS011;47274;43.054;25.146;2023-04-25T05:38:04;5.47;;;3.75;;
61407;SDS011;47274;43.054;25.146;2023-04-25T05:40:59;6.97;;;4.32;;
61407;SDS011;47274;43.054;25.146;2023-04-25T05:43:48;10.05;;;5.15;;
61407;SDS011;47274;43.054;25.146;2023-04-25T05:46:33;7.50;;;4.22;;
61407;SDS011;47274;43.054;25.146;2023-04-25T05:49:27;3.65;;;3.10;;
61407;SDS011;47274;43.054;25.146;2023-04-25T05:52:18;3.47;;;3.10;;
61407;SDS011;47274;43.054;25.146;2023-04-25T05:54:47;4.63;;;3.30;;
61407;SDS011;47274;43.054;25.146;2023-04-25T05:57:19;6.40;;;3.35;;
61407;SDS011;47274;43.054;25.146;2023-04-25T05:59:50;9.57;;;4.35;;
61407;SDS011;47274;43.054;25.146;2023-04-25T06:02:17;8.00;;;4.70;;
61407;SDS011;47274;43.054;25.146;2023-04-25T06:04:43;11.88;;;5.80;;
61407;SDS011;47274;43.054;25.146;2023-04-25T06:07:09;14.32;;;6.35;;
61407;SDS011;47274;43.054;25.146;2023-04-25T06:09:36;11.20;;;6.07;;
61407;SDS011;47274;43.054;25.146;2023-04-25T06:12:04;11.50;;;5.40;;
61407;SDS011;47274;43.054;25.146;2023-04-25T06:14:34;8.48;;;4.40;;
61407;SDS011;47274;43.054;25.146;2023-04-25T06:17:00;9.43;;;4.40;;
61407;SDS011;47274;43.054;25.146;2023-04-25T06:19:32;9.23;;;4.70;;
61407;SDS011;47274;43.054;25.146;2023-04-25T06:21:58;8.60;;;4.13;;
61407;SDS011;47274;43.054;25.146;2023-04-25T06:24:24;8.00;;;4.13;;
61407;SDS011;47274;43.054;25.146;2023-04-25T06:26:50;8.73;;;3.83;;
61407;SDS011;47274;43.054;25.146;2023-04-25T06:29:16;6.55;;;3.70;;
61407;SDS011;47274;43.054;25.146;2023-04-25T06:31:42;3.92;;;3.00;;
61407;SDS011;47274;43.054;25.146;2023-04-25T06:34:12;6.97;;;3.42;;
61407;SDS011;47274;43.054;25.146;2023-04-25T06:36:39;5.63;;;3.20;;
61407;SDS011;47274;43.054;25.146;2023-04-25T06:39:13;4.53;;;2.80;;
61407;SDS011;47274;43.054;25.146;2023-04-25T06:41:39;4.43;;;2.60;;
61407;SDS011;47274;43.054;25.146;2023-04-25T06:44:06;4.10;;;2.80;;
61407;SDS011;47274;43.054;25.146;2023-04-25T06:46:51;5.57;;;3.25;;
61407;SDS011;47274;43.054;25.146;2023-04-25T06:49:17;4.60;;;2.92;;
61407;SDS011;47274;43.054;25.146;2023-04-25T06:51:49;8.43;;;3.45;;
61407;SDS011;47274;43.054;25.146;2023-04-25T06:54:15;15.52;;;6.50;;
61407;SDS011;47274;43.054;25.146;2023-04-25T06:56:51;8.73;;;4.10;;
61407;SDS011;47274;43.054;25.146;2023-04-25T06:59:20;12.75;;;4.63;;
61407;SDS011;47274;43.054;25.146;2023-04-25T07:01:50;16.63;;;6.10;;
61407;SDS011;47274;43.054;25.146;2023-04-25T07:04:25;23.77;;;9.60;;
61407;SDS011;47274;43.054;25.146;2023-04-25T07:06:54;22.00;;;8.75;;
61407;SDS011;47274;43.054;25.146;2023-04-25T07:09:28;15.30;;;5.38;;
61407;SDS011;47274;43.054;25.146;2023-04-25T07:11:54;17.20;;;6.65;;
61407;SDS011;47274;43.054;25.146;2023-04-25T07:14:21;16.23;;;6.50;;
61407;SDS011;47274;43.054;25.146;2023-04-25T07:16:52;14.23;;;5.40;;
61407;SDS011;47274;43.054;25.146;2023-04-25T07:19:24;12.47;;;4.90;;
61407;SDS011;47274;43.054;25.146;2023-04-25T07:21:54;7.80;;;3.80;;
61407;SDS011;47274;43.054;25.146;2023-04-25T07:24:23;7.18;;;3.60;;
61407;SDS011;47274;43.054;25.146;2023-04-25T07:26:50;9.63;;;4.00;;
61407;SDS011;47274;43.054;25.146;2023-04-25T07:29:32;8.53;;;4.43;;
61407;SDS011;47274;43.054;25.146;2023-04-25T07:31:59;7.50;;;3.50;;
61407;SDS011;47274;43.054;25.146;2023-04-25T07:34:25;7.65;;;3.90;;
61407;SDS011;47274;43.054;25.146;2023-04-25T07:36:51;9.32;;;3.97;;
61407;SDS011;47274;43.054;25.146;2023-04-25T07:39:18;7.47;;;3.70;;
61407;SDS011;47274;43.054;25.146;2023-04-25T07:41:44;6.38;;;3.60;;
61407;SDS011;47274;43.054;25.146;2023-04-25T07:44:22;10.77;;;4.55;;
61407;SDS011;47274;43.054;25.146;2023-04-25T07:46:54;6.03;;;3.75;;
61407;SDS011;47274;43.054;25.146;2023-04-25T07:49:20;6.57;;;3.63;;
61407;SDS011;47274;43.054;25.146;2023-04-25T07:51:47;5.57;;;3.55;;
61407;SDS011;47274;43.054;25.146;2023-04-25T07:54:16;4.97;;;3.58;;
61407;SDS011;47274;43.054;25.146;2023-04-25T07:56:47;5.95;;;3.47;;
61407;SDS011;47274;43.054;25.146;2023-04-25T07:59:13;4.80;;;3.33;;
61407;SDS011;47274;43.054;25.146;2023-04-25T08:01:41;4.72;;;3.40;;
61407;SDS011;47274;43.054;25.146;2023-04-25T08:04:09;5.10;;;3.40;;
61407;SDS011;47274;43.054;25.146;2023-04-25T08:06:54;6.22;;;3.55;;
61407;SDS011;47274;43.054;25.146;2023-04-25T08:09:27;4.63;;;3.20;;
61407;SDS011;47274;43.054;25.146;2023-04-25T08:11:57;5.13;;;3.30;;
61407;SDS011;47274;43.054;25.146;2023-04-25T08:14:28;7.07;;;3.72;;
61407;SDS011;47274;43.054;25.146;2023-04-25T08:16:56;4.25;;;3.53;;
61407;SDS011;47274;43.054;25.146;2023-04-25T08:19:25;4.93;;;3.47;;
61407;SDS011;47274;43.054;25.146;2023-04-25T08:21:56;3.40;;;3.10;;
61407;SDS011;47274;43.054;25.146;2023-04-25T08:24:34;5.95;;;3.40;;
61407;SDS011;47274;43.054;25.146;2023-04-25T08:27:00;4.00;;;3.20;;
61407;SDS011;47274;43.054;25.146;2023-04-25T08:29:30;6.03;;;3.05;;
61407;SDS011;47274;43.054;25.146;2023-04-25T08:31:56;6.57;;;4.15;;
61407;SDS011;47274;43.054;25.146;2023-04-25T08:34:22;5.63;;;3.55;;
61407;SDS011;47274;43.054;25.146;2023-04-25T08:36:52;7.55;;;3.90;;
61407;SDS011;47274;43.054;25.146;2023-04-25T08:39:28;5.20;;;3.83;;
61407;SDS011;47274;43.054;25.146;2023-04-25T08:42:17;8.30;;;3.50;;
61407;SDS011;47274;43.054;25.146;2023-04-25T08:44:44;17.55;;;4.78;;
61407;SDS011;47274;43.054;25.146;2023-04-25T08:47:15;28.20;;;11.93;;
61407;SDS011;47274;43.054;25.146;2023-04-25T08:49:48;23.45;;;9.55;;
61407;SDS011;47274;43.054;25.146;2023-04-25T16:40:48;3.13;;;1.90;;
61407;SDS011;47274;43.054;25.146;2023-04-25T16:43:14;4.18;;;1.65;;
61407;SDS011;47274;43.054;25.146;2023-04-25T16:45:45;1.88;;;1.77;;
61407;SDS011;47274;43.054;25.146;2023-04-25T16:48:11;6.53;;;2.22;;
61407;SDS011;47274;43.054;25.146;2023-04-25T16:50:37;1.92;;;1.77;;
61407;SDS011;47274;43.054;25.146;2023-04-25T16:53:02;3.05;;;2.13;;
61407;SDS011;47274;43.054;25.146;2023-04-25T16:55:28;4.18;;;1.80;;
61407;SDS011;47274;43.054;25.146;2023-04-25T16:57:54;3.85;;;1.98;;
61407;SDS011;47274;43.054;25.146;2023-04-25T17:00:20;2.40;;;1.70;;
61407;SDS011;47274;43.054;25.146;2023-04-25T17:02:46;2.58;;;1.80;;
61407;SDS011;47274;43.054;25.146;2023-04-25T17:05:11;2.22;;;1.83;;
61407;SDS011;47274;43.054;25.146;2023-04-25T17:07:37;3.38;;;1.58;;
61407;SDS011;47274;43.054;25.146;2023-04-25T17:10:03;3.03;;;1.52;;
61407;SDS011;47274;43.054;25.146;2023-04-25T17:12:29;1.88;;;1.40;;
61407;SDS011;47274;43.054;25.146;2023-04-25T17:14:55;2.80;;;1.60;;
61407;SDS011;47274;43.054;25.146;2023-04-25T17:17:21;1.83;;;1.73;;
61407;SDS011;47274;43.054;25.146;2023-04-25T17:19:47;4.43;;;1.58;;
61407;SDS011;47274;43.054;25.146;2023-04-25T17:22:13;3.28;;;2.10;;
61407;SDS011;47274;43.054;25.146;2023-04-25T17:24:38;1.92;;;1.80;;
61407;SDS011;47274;43.054;25.146;2023-04-25T17:27:04;4.70;;;2.15;;
61407;SDS011;47274;43.054;25.146;2023-04-25T17:29:30;3.33;;;1.85;;
61407;SDS011;47274;43.054;25.146;2023-04-25T17:31:58;4.32;;;2.03;;
61407;SDS011;47274;43.054;25.146;2023-04-25T17:34:24;3.03;;;2.00;;
61407;SDS011;47274;43.054;25.146;2023-04-25T17:36:50;3.45;;;2.00;;
61407;SDS011;47274;43.054;25.146;2023-04-25T17:39:16;3.50;;;2.10;;
61407;SDS011;47274;43.054;25.146;2023-04-25T17:41:42;4.07;;;2.28;;
61407;SDS011;47274;43.054;25.146;2023-04-25T17:44:08;2.85;;;2.00;;
61407;SDS011;47274;43.054;25.146;2023-04-25T17:46:34;2.03;;;1.85;;
61407;SDS011;47274;43.054;25.146;2023-04-25T17:49:00;4.00;;;1.80;;
61407;SDS011;47274;43.054;25.146;2023-04-25T17:51:26;2.97;;;2.00;;
61407;SDS011;47274;43.054;25.146;2023-04-25T17:53:52;2.53;;;2.20;;
61407;SDS011;47274;43.054;25.146;2023-04-25T17:56:18;4.20;;;1.95;;
61407;SDS011;47274;43.054;25.146;2023-04-25T17:58:44;2.60;;;2.10;;
61407;SDS011;47274;43.054;25.146;2023-04-25T18:01:09;6.38;;;2.03;;
61407;SDS011;47274;43.054;25.146;2023-04-25T18:03:35;3.50;;;2.30;;
61407;SDS011;47274;43.054;25.146;2023-04-25T18:06:03;2.55;;;1.95;;
61407;SDS011;47274;43.054;25.146;2023-04-25T18:08:29;2.65;;;1.75;;
61407;SDS011;47274;43.054;25.146;2023-04-25T18:10:55;3.05;;;2.15;;
61407;SDS011;47274;43.054;25.146;2023-04-25T18:13:22;2.05;;;1.95;;
61407;SDS011;47274;43.054;25.146;2023-04-25T18:15:48;5.47;;;1.70;;
61407;SDS011;47274;43.054;25.146;2023-04-25T18:18:16;1.92;;;1.83;;
61407;SDS011;47274;43.054;25.146;2023-04-25T18:20:45;3.22;;;2.03;;
61407;SDS011;47274;43.054;25.146;2023-04-25T18:23:13;4.10;;;2.15;;
61407;SDS011;47274;43.054;25.146;2023-04-25T18:25:39;3.05;;;2.00;;
61407;SDS011;47274;43.054;25.146;2023-04-25T18:28:06;2.88;;;1.95;;
61407;SDS011;47274;43.054;25.146;2023-04-25T18:30:33;3.03;;;2.00;;
61407;SDS011;47274;43.054;25.146;2023-04-25T18:32:59;2.10;;;1.90;;
61407;SDS011;47274;43.054;25.146;2023-04-25T18:35:25;4.45;;;1.95;;
61407;SDS011;47274;43.054;25.146;2023-04-25T18:37:52;2.22;;;1.90;;
61407;SDS011;47274;43.054;25.146;2023-04-25T18:40:18;2.70;;;1.90;;
61407;SDS011;47274;43.054;25.146;2023-04-25T18:42:44;3.45;;;1.90;;
61407;SDS011;47274;43.054;25.146;2023-04-25T18:45:10;2.10;;;1.90;;
61407;SDS011;47274;43.054;25.146;2023-04-25T18:47:36;2.40;;;2.00;;
61407;SDS011;47274;43.054;25.146;2023-04-25T18:50:02;2.17;;;1.85;;
61407;SDS011;47274;43.054;25.146;2023-04-25T18:52:29;5.50;;;2.42;;
61407;SDS011;47274;43.054;25.146;2023-04-25T18:54:54;2.88;;;2.50;;
61407;SDS011;47274;43.054;25.146;2023-04-25T18:57:21;2.70;;;2.10;;
61407;SDS011;47274;43.054;25.146;2023-04-25T18:59:46;3.90;;;2.33;;
61407;SDS011;47274;43.054;25.146;2023-04-25T19:02:12;3.28;;;2.15;;
61407;SDS011;47274;43.054;25.146;2023-04-25T19:04:40;3.65;;;2.15;;
61407;SDS011;47274;43.054;25.146;2023-04-25T19:07:06;2.60;;;2.20;;
61407;SDS011;47274;43.054;25.146;2023-04-25T19:09:32;5.03;;;2.28;;
61407;SDS011;47274;43.054;25.146;2023-04-25T19:11:58;6.22;;;2.38;;
61407;SDS011;47274;43.054;25.146;2023-04-25T19:14:24;3.72;;;2.28;;
61407;SDS011;47274;43.054;25.146;2023-04-25T19:16:51;3.28;;;2.45;;
61407;SDS011;47274;43.054;25.146;2023-04-25T19:19:18;3.10;;;2.10;;
61407;SDS011;47274;43.054;25.146;2023-04-25T19:21:44;2.40;;;2.20;;
61407;SDS011;47274;43.054;25.146;2023-04-25T19:24:09;2.30;;;2.10;;
61407;SDS011;47274;43.054;25.146;2023-04-25T19:26:36;3.75;;;2.38;;
61407;SDS011;47274;43.054;25.146;2023-04-25T19:29:12;4.45;;;2.60;;
61407;SDS011;47274;43.054;25.146;2023-04-25T19:31:42;2.67;;;2.30;;
61407;SDS011;47274;43.054;25.146;2023-04-25T19:34:08;4.63;;;2.60;;
61407;SDS011;47274;43.054;25.146;2023-04-25T19:36:36;3.50;;;2.95;;
61407;SDS011;47274;43.054;25.146;2023-04-25T19:39:03;3.45;;;2.53;;
61407;SDS011;47274;43.054;25.146;2023-04-25T19:41:31;3.33;;;2.70;;
61407;SDS011;47274;43.054;25.146;2023-04-25T19:44:02;5.32;;;2.95;;
61407;SDS011;47274;43.054;25.146;2023-04-25T19:46:30;3.88;;;2.90;;
61407;SDS011;47274;43.054;25.146;2023-04-25T19:48:57;3.53;;;2.30;;
61407;SDS011;47274;43.054;25.146;2023-04-25T19:51:23;5.43;;;2.20;;
61407;SDS011;47274;43.054;25.146;2023-04-25T19:53:49;3.08;;;2.05;;
61407;SDS011;47274;43.054;25.146;2023-04-25T19:56:17;2.50;;;2.30;;
61407;SDS011;47274;43.054;25.146;2023-04-25T19:58:43;2.00;;;1.90;;
61407;SDS011;47274;43.054;25.146;2023-04-25T20:01:09;6.22;;;2.42;;
61407;SDS011;47274;43.054;25.146;2023-04-25T20:03:35;2.50;;;2.30;;
61407;SDS011;47274;43.054;25.146;2023-04-25T20:06:01;4.57;;;2.42;;
61407;SDS011;47274;43.054;25.146;2023-04-25T20:08:27;3.65;;;2.40;;
61407;SDS011;47274;43.054;25.146;2023-04-25T20:10:53;4.90;;;2.70;;
61407;SDS011;47274;43.054;25.146;2023-04-25T20:13:18;5.20;;;2.33;;
61407;SDS011;47274;43.054;25.146;2023-04-25T20:15:44;3.83;;;2.60;;
61407;SDS011;47274;43.054;25.146;2023-04-25T20:18:10;3.83;;;2.63;;
61407;SDS011;47274;43.054;25.146;2023-04-25T20:20:36;5.35;;;2.60;;
61407;SDS011;47274;43.054;25.146;2023-04-25T20:23:01;2.97;;;2.53;;
61407;SDS011;47274;43.054;25.146;2023-04-25T20:25:27;5.63;;;2.55;;
61407;SDS011;47274;43.054;25.146;2023-04-25T20:27:53;5.07;;;2.80;;
61407;SDS011;47274;43.054;25.146;2023-04-25T20:30:20;9.07;;;4.75;;
61407;SDS011;47274;43.054;25.146;2023-04-25T20:32:46;18.08;;;7.80;;
61407;SDS011;47274;43.054;25.146;2023-04-25T20:35:12;15.18;;;7.05;;
61407;SDS011;47274;43.054;25.146;2023-04-25T20:37:38;16.60;;;7.78;;
61407;SDS011;47274;43.054;25.146;2023-04-25T20:40:04;9.45;;;5.22;;
61407;SDS011;47274;43.054;25.146;2023-04-25T20:42:32;8.65;;;4.05;;
61407;SDS011;47274;43.054;25.146;2023-04-25T20:44:58;17.55;;;5.63;;
61407;SDS011;47274;43.054;25.146;2023-04-25T20:47:26;9.77;;;4.82;;
61407;SDS011;47274;43.054;25.146;2023-04-25T20:49:53;10.60;;;4.90;;
61407;SDS011;47274;43.054;25.146;2023-04-25T20:52:19;11.23;;;5.57;;
61407;SDS011;47274;43.054;25.146;2023-04-25T20:54:45;12.45;;;5.65;;
61407;SDS011;47274;43.054;25.146;2023-04-25T20:57:15;11.30;;;5.70;;
61407;SDS011;47274;43.054;25.146;2023-04-25T20:59:41;11.88;;;5.75;;
61407;SDS011;47274;43.054;25.146;2023-04-25T21:02:07;9.57;;;4.50;;
61407;SDS011;47274;43.054;25.146;2023-04-25T21:04:36;10.70;;;5.30;;
61407;SDS011;47274;43.054;25.146;2023-04-25T21:07:02;12.88;;;5.65;;
61407;SDS011;47274;43.054;25.146;2023-04-25T21:09:27;14.50;;;5.68;;
61407;SDS011;47274;43.054;25.146;2023-04-25T21:11:53;12.02;;;5.32;;
61407;SDS011;47274;43.054;25.146;2023-04-25T21:14:19;15.73;;;7.55;;
61407;SDS011;47274;43.054;25.146;2023-04-25T21:16:44;216.82;;;15.10;;
61407;SDS011;47274;43.054;25.146;2023-04-25T21:19:10;500.30;;;27.17;;
61407;SDS011;47274;43.054;25.146;2023-04-25T21:21:36;94.50;;;10.57;;
61407;SDS011;47274;43.054;25.146;2023-04-25T21:24:02;12.15;;;5.72;;
61407;SDS011;47274;43.054;25.146;2023-04-25T21:26:28;17.30;;;7.50;;
61407;SDS011;47274;43.054;25.146;2023-04-25T21:28:55;19.35;;;9.90;;
61407;SDS011;47274;43.054;25.146;2023-04-25T21:31:21;18.88;;;8.88;;
61407;SDS011;47274;43.054;25.146;2023-04-25T21:33:46;17.65;;;8.48;;
61407;SDS011;47274;43.054;25.146;2023-04-25T21:36:12;17.30;;;8.00;;
61407;SDS011;47274;43.054;25.146;2023-04-25T21:38:38;17.60;;;7.97;;
61407;SDS011;47274;43.054;25.146;2023-04-25T21:41:04;16.00;;;7.82;;
61407;SDS011;47274;43.054;25.146;2023-04-25T21:43:29;50.92;;;10.32;;
61407;SDS011;47274;43.054;25.146;2023-04-25T21:45:55;19.55;;;7.15;;
61407;SDS011;47274;43.054;25.146;2023-04-25T21:48:21;16.13;;;7.05;;
61407;SDS011;47274;43.054;25.146;2023-04-25T21:50:47;13.93;;;6.32;;
61407;SDS011;47274;43.054;25.146;2023-04-25T21:53:12;14.40;;;6.55;;
61407;SDS011;47274;43.054;25.146;2023-04-25T21:55:38;16.73;;;7.30;;
61407;SDS011;47274;43.054;25.146;2023-04-25T21:58:04;15.30;;;7.32;;
61407;SDS011;47274;43.054;25.146;2023-04-25T22:00:30;15.70;;;7.28;;
61407;SDS011;47274;43.054;25.146;2023-04-25T22:02:56;16.83;;;7.93;;
61407;SDS011;47274;43.054;25.146;2023-04-25T22:05:22;16.80;;;7.95;;
61407;SDS011;47274;43.054;25.146;2023-04-25T22:07:51;16.42;;;7.60;;
61407;SDS011;47274;43.054;25.146;2023-04-25T22:10:21;18.30;;;7.97;;
61407;SDS011;47274;43.054;25.146;2023-04-25T22:12:48;17.23;;;8.30;;
61407;SDS011;47274;43.054;25.146;2023-04-25T22:15:18;15.48;;;7.68;;
61407;SDS011;47274;43.054;25.146;2023-04-25T22:17:50;17.08;;;7.75;;
61407;SDS011;47274;43.054;25.146;2023-04-25T22:20:18;17.65;;;7.78;;
61407;SDS011;47274;43.054;25.146;2023-04-25T22:22:47;18.20;;;8.60;;
61407;SDS011;47274;43.054;25.146;2023-04-25T22:25:13;17.70;;;8.85;;
61407;SDS011;47274;43.054;25.146;2023-04-25T22:27:40;18.48;;;9.07;;
61407;SDS011;47274;43.054;25.146;2023-04-25T22:30:07;18.67;;;9.40;;